sensor_id;sensor_type;location;lat;lon;timestamp;temperature;humidity
14749;DHT22;7466;53.574;9.976;2023-05-15T00:00:37;13.40;99.90
14749;DHT22;7466;53.574;9.976;2023-05-15T00:03:04;13.50;99.90
14749;DHT22;7466;53.574;9.976;2023-05-15T00:05:30;13.50;99.90
14749;DHT22;7466;53.574;9.976;2023-05-15T00:07:57;13.40;99.90
14749;DHT22;7466;53.574;9.976;2023-05-15T00:10:25;13.40;99.90
14749;DHT22;7466;53.574;9.976;2023-05-15T00:12:52;13.40;99.90
14749;DHT22;7466;53.574;9.976;2023-05-15T00:15:20;13.40;99.90
14749;DHT22;7466;53.574;9.976;2023-05-15T00:17:47;13.40;99.90
14749;DHT22;7466;53.574;9.976;2023-05-15T00:20:14;13.30;99.90
14749;DHT22;7466;53.574;9.976;2023-05-15T00:22:41;13.20;99.90
14749;DHT22;7466;53.574;9.976;2023-05-15T00:25:08;13.20;99.90
14749;DHT22;7466;53.574;9.976;2023-05-15T00:27:36;13.20;99.90
14749;DHT22;7466;53.574;9.976;2023-05-15T00:30:04;13.20;99.90
14749;DHT22;7466;53.574;9.976;2023-05-15T00:32:31;13.20;99.90
14749;DHT22;7466;53.574;9.976;2023-05-15T00:34:58;13.10;99.90
14749;DHT22;7466;53.574;9.976;2023-05-15T00:37:25;13.10;99.90
14749;DHT22;7466;53.574;9.976;2023-05-15T00:39:54;13.20;99.90
14749;DHT22;7466;53.574;9.976;2023-05-15T00:42:21;13.20;99.90
14749;DHT22;7466;53.574;9.976;2023-05-15T00:44:51;13.20;99.90
14749;DHT22;7466;53.574;9.976;2023-05-15T00:47:19;13.20;99.90
14749;DHT22;7466;53.574;9.976;2023-05-15T00:49:46;13.10;99.90
14749;DHT22;7466;53.574;9.976;2023-05-15T00:52:14;13.10;99.90
14749;DHT22;7466;53.574;9.976;2023-05-15T00:54:41;13.10;99.90
14749;DHT22;7466;53.574;9.976;2023-05-15T00:57:08;13.10;99.90
14749;DHT22;7466;53.574;9.976;2023-05-15T00:59:36;13.00;99.90
14749;DHT22;7466;53.574;9.976;2023-05-15T01:02:05;13.00;99.90
14749;DHT22;7466;53.574;9.976;2023-05-15T01:04:35;12.90;99.90
14749;DHT22;7466;53.574;9.976;2023-05-15T01:07:02;12.80;99.90
14749;DHT22;7466;53.574;9.976;2023-05-15T01:09:33;12.70;99.90
14749;DHT22;7466;53.574;9.976;2023-05-15T01:12:04;12.70;99.90
14749;DHT22;7466;53.574;9.976;2023-05-15T01:14:33;12.70;99.90
14749;DHT22;7466;53.574;9.976;2023-05-15T01:16:59;12.70;99.90
14749;DHT22;7466;53.574;9.976;2023-05-15T01:19:29;12.70;99.90
14749;DHT22;7466;53.574;9.976;2023-05-15T01:22:16;12.60;99.90
14749;DHT22;7466;53.574;9.976;2023-05-15T01:25:03;12.70;99.90
14749;DHT22;7466;53.574;9.976;2023-05-15T01:27:37;12.60;99.90
14749;DHT22;7466;53.574;9.976;2023-05-15T01:30:11;12.60;99.90
14749;DHT22;7466;53.574;9.976;2023-05-15T01:32:42;12.50;99.90
14749;DHT22;7466;53.574;9.976;2023-05-15T01:35:15;12.50;99.90
14749;DHT22;7466;53.574;9.976;2023-05-15T01:37:47;12.60;99.90
14749;DHT22;7466;53.574;9.976;2023-05-15T01:40:15;12.60;99.90
14749;DHT22;7466;53.574;9.976;2023-05-15T01:42:50;12.60;99.90
14749;DHT22;7466;53.574;9.976;2023-05-15T01:45:17;12.60;99.90
14749;DHT22;7466;53.574;9.976;2023-05-15T01:47:46;12.60;99.90
14749;DHT22;7466;53.574;9.976;2023-05-15T01:50:14;12.50;99.90
14749;DHT22;7466;53.574;9.976;2023-05-15T01:52:45;12.40;99.90
14749;DHT22;7466;53.574;9.976;2023-05-15T01:55:13;12.30;99.90
14749;DHT22;7466;53.574;9.976;2023-05-15T01:57:41;12.30;99.90
14749;DHT22;7466;53.574;9.976;2023-05-15T02:00:11;12.20;99.90
14749;DHT22;7466;53.574;9.976;2023-05-15T02:02:40;12.20;99.90
14749;DHT22;7466;53.574;9.976;2023-05-15T02:05:10;12.20;99.90
14749;DHT22;7466;53.574;9.976;2023-05-15T02:07:37;12.20;99.90
14749;DHT22;7466;53.574;9.976;2023-05-15T02:10:06;12.20;99.90
14749;DHT22;7466;53.574;9.976;2023-05-15T02:12:33;12.20;99.90
14749;DHT22;7466;53.574;9.976;2023-05-15T02:15:06;12.10;99.90
14749;DHT22;7466;53.574;9.976;2023-05-15T02:17:36;12.10;99.90
14749;DHT22;7466;53.574;9.976;2023-05-15T02:20:03;12.10;99.90
14749;DHT22;7466;53.574;9.976;2023-05-15T02:22:32;12.00;99.90
14749;DHT22;7466;53.574;9.976;2023-05-15T02:24:58;12.00;99.90
14749;DHT22;7466;53.574;9.976;2023-05-15T02:27:32;12.00;99.90
14749;DHT22;7466;53.574;9.976;2023-05-15T02:30:12;12.00;99.90
14749;DHT22;7466;53.574;9.976;2023-05-15T02:32:49;12.00;99.90
14749;DHT22;7466;53.574;9.976;2023-05-15T02:35:25;12.00;99.90
14749;DHT22;7466;53.574;9.976;2023-05-15T02:37:55;12.00;99.90
14749;DHT22;7466;53.574;9.976;2023-05-15T02:40:27;11.90;99.90
14749;DHT22;7466;53.574;9.976;2023-05-15T02:42:54;11.80;99.90
14749;DHT22;7466;53.574;9.976;2023-05-15T02:45:23;11.80;99.90
14749;DHT22;7466;53.574;9.976;2023-05-15T02:47:52;11.80;99.90
14749;DHT22;7466;53.574;9.976;2023-05-15T02:50:19;11.80;99.90
14749;DHT22;7466;53.574;9.976;2023-05-15T02:52:46;11.80;99.90
14749;DHT22;7466;53.574;9.976;2023-05-15T02:55:14;11.80;99.90
14749;DHT22;7466;53.574;9.976;2023-05-15T02:57:40;11.80;99.90
14749;DHT22;7466;53.574;9.976;2023-05-15T03:00:09;11.80;99.90
14749;DHT22;7466;53.574;9.976;2023-05-15T03:02:40;11.70;99.90
14749;DHT22;7466;53.574;9.976;2023-05-15T03:05:08;11.60;99.90
14749;DHT22;7466;53.574;9.976;2023-05-15T03:07:36;11.60;99.90
14749;DHT22;7466;53.574;9.976;2023-05-15T03:10:04;11.50;99.90
14749;DHT22;7466;53.574;9.976;2023-05-15T03:12:31;11.50;99.90
14749;DHT22;7466;53.574;9.976;2023-05-15T03:14:58;11.50;99.90
14749;DHT22;7466;53.574;9.976;2023-05-15T03:17:26;11.50;99.90
14749;DHT22;7466;53.574;9.976;2023-05-15T03:19:53;11.60;99.90
14749;DHT22;7466;53.574;9.976;2023-05-15T03:22:22;11.50;99.90
14749;DHT22;7466;53.574;9.976;2023-05-15T03:24:51;11.50;99.90
14749;DHT22;7466;53.574;9.976;2023-05-15T03:27:17;11.40;99.90
14749;DHT22;7466;53.574;9.976;2023-05-15T03:29:47;11.30;99.90
14749;DHT22;7466;53.574;9.976;2023-05-15T03:32:15;11.30;99.90
14749;DHT22;7466;53.574;9.976;2023-05-15T03:34:45;11.30;99.90
14749;DHT22;7466;53.574;9.976;2023-05-15T03:37:12;11.40;99.90
14749;DHT22;7466;53.574;9.976;2023-05-15T03:39:40;11.30;99.90
14749;DHT22;7466;53.574;9.976;2023-05-15T03:42:07;11.40;99.90
14749;DHT22;7466;53.574;9.976;2023-05-15T03:44:33;11.40;99.90
14749;DHT22;7466;53.574;9.976;2023-05-15T03:47:00;11.40;99.90
14749;DHT22;7466;53.574;9.976;2023-05-15T03:49:27;11.30;99.90
14749;DHT22;7466;53.574;9.976;2023-05-15T03:51:55;11.30;99.90
14749;DHT22;7466;53.574;9.976;2023-05-15T03:54:26;11.40;99.90
14749;DHT22;7466;53.574;9.976;2023-05-15T03:56:56;11.30;99.90
14749;DHT22;7466;53.574;9.976;2023-05-15T03:59:22;11.40;99.90
14749;DHT22;7466;53.574;9.976;2023-05-15T04:01:49;11.40;99.90
14749;DHT22;7466;53.574;9.976;2023-05-15T04:04:16;11.50;99.90
14749;DHT22;7466;53.574;9.976;2023-05-15T04:06:43;11.40;99.90
14749;DHT22;7466;53.574;9.976;2023-05-15T04:09:10;11.40;99.90
14749;DHT22;7466;53.574;9.976;2023-05-15T04:11:37;11.40;99.90
14749;DHT22;7466;53.574;9.976;2023-05-15T04:14:05;11.50;99.90
14749;DHT22;7466;53.574;9.976;2023-05-15T04:16:32;11.50;99.90
14749;DHT22;7466;53.574;9.976;2023-05-15T04:19:05;11.50;99.90
14749;DHT22;7466;53.574;9.976;2023-05-15T04:21:34;11.50;99.90
14749;DHT22;7466;53.574;9.976;2023-05-15T04:24:03;11.60;99.90
14749;DHT22;7466;53.574;9.976;2023-05-15T04:26:33;11.60;99.90
14749;DHT22;7466;53.574;9.976;2023-05-15T04:29:01;11.60;99.90
14749;DHT22;7466;53.574;9.976;2023-05-15T04:31:29;11.70;99.90
14749;DHT22;7466;53.574;9.976;2023-05-15T04:33:56;11.70;99.90
14749;DHT22;7466;53.574;9.976;2023-05-15T04:36:22;11.80;99.90
14749;DHT22;7466;53.574;9.976;2023-05-15T04:38:51;11.80;99.90
14749;DHT22;7466;53.574;9.976;2023-05-15T04:41:20;11.90;99.90
14749;DHT22;7466;53.574;9.976;2023-05-15T04:43:46;11.90;99.90
14749;DHT22;7466;53.574;9.976;2023-05-15T04:46:13;12.00;99.90
14749;DHT22;7466;53.574;9.976;2023-05-15T04:48:41;12.00;99.90
14749;DHT22;7466;53.574;9.976;2023-05-15T04:51:08;12.10;99.90
14749;DHT22;7466;53.574;9.976;2023-05-15T04:53:37;12.10;99.90
14749;DHT22;7466;53.574;9.976;2023-05-15T04:56:05;12.20;99.90
14749;DHT22;7466;53.574;9.976;2023-05-15T04:58:31;12.30;99.90
14749;DHT22;7466;53.574;9.976;2023-05-15T05:00:58;12.30;99.90
14749;DHT22;7466;53.574;9.976;2023-05-15T05:03:25;12.40;99.90
14749;DHT22;7466;53.574;9.976;2023-05-15T05:05:53;12.40;99.90
14749;DHT22;7466;53.574;9.976;2023-05-15T05:08:23;12.40;99.90
14749;DHT22;7466;53.574;9.976;2023-05-15T05:10:59;12.50;99.90
14749;DHT22;7466;53.574;9.976;2023-05-15T05:13:27;12.60;99.90
14749;DHT22;7466;53.574;9.976;2023-05-15T05:15:54;12.80;99.90
14749;DHT22;7466;53.574;9.976;2023-05-15T05:18:22;12.80;99.90
14749;DHT22;7466;53.574;9.976;2023-05-15T05:20:49;12.90;99.90
14749;DHT22;7466;53.574;9.976;2023-05-15T05:23:29;12.90;99.90
14749;DHT22;7466;53.574;9.976;2023-05-15T05:26:01;13.00;99.90
14749;DHT22;7466;53.574;9.976;2023-05-15T05:28:31;13.10;99.90
14749;DHT22;7466;53.574;9.976;2023-05-15T05:30:58;13.20;99.90
14749;DHT22;7466;53.574;9.976;2023-05-15T05:33:26;13.30;99.90
14749;DHT22;7466;53.574;9.976;2023-05-15T05:35:53;13.50;99.90
14749;DHT22;7466;53.574;9.976;2023-05-15T05:38:20;13.40;99.90
14749;DHT22;7466;53.574;9.976;2023-05-15T05:40:48;13.50;99.90
14749;DHT22;7466;53.574;9.976;2023-05-15T05:43:15;13.50;99.90
14749;DHT22;7466;53.574;9.976;2023-05-15T05:45:42;13.70;99.90
14749;DHT22;7466;53.574;9.976;2023-05-15T05:48:08;13.90;99.90
14749;DHT22;7466;53.574;9.976;2023-05-15T05:50:35;14.00;99.90
14749;DHT22;7466;53.574;9.976;2023-05-15T05:53:02;14.20;99.90
14749;DHT22;7466;53.574;9.976;2023-05-15T05:55:32;14.30;99.90
14749;DHT22;7466;53.574;9.976;2023-05-15T05:58:00;14.30;99.90
14749;DHT22;7466;53.574;9.976;2023-05-15T06:00:26;14.40;99.90
14749;DHT22;7466;53.574;9.976;2023-05-15T06:02:56;14.30;99.90
14749;DHT22;7466;53.574;9.976;2023-05-15T06:05:23;14.50;99.90
14749;DHT22;7466;53.574;9.976;2023-05-15T06:07:53;14.60;99.90
14749;DHT22;7466;53.574;9.976;2023-05-15T06:10:24;14.70;99.90
14749;DHT22;7466;53.574;9.976;2023-05-15T06:12:51;14.90;99.90
14749;DHT22;7466;53.574;9.976;2023-05-15T06:15:19;15.00;99.90
14749;DHT22;7466;53.574;9.976;2023-05-15T06:17:46;15.20;99.90
14749;DHT22;7466;53.574;9.976;2023-05-15T06:20:13;15.20;99.90
14749;DHT22;7466;53.574;9.976;2023-05-15T06:22:40;15.50;99.90
14749;DHT22;7466;53.574;9.976;2023-05-15T06:25:07;15.70;99.90
14749;DHT22;7466;53.574;9.976;2023-05-15T06:27:41;15.70;99.90
14749;DHT22;7466;53.574;9.976;2023-05-15T06:30:08;16.00;99.90
14749;DHT22;7466;53.574;9.976;2023-05-15T06:32:37;16.20;99.90
14749;DHT22;7466;53.574;9.976;2023-05-15T06:35:04;16.40;99.90
14749;DHT22;7466;53.574;9.976;2023-05-15T06:37:31;16.30;99.90
14749;DHT22;7466;53.574;9.976;2023-05-15T06:39:58;16.40;99.90
14749;DHT22;7466;53.574;9.976;2023-05-15T06:42:24;16.50;99.90
14749;DHT22;7466;53.574;9.976;2023-05-15T06:44:51;16.70;99.90
14749;DHT22;7466;53.574;9.976;2023-05-15T06:47:18;16.50;99.90
14749;DHT22;7466;53.574;9.976;2023-05-15T06:49:46;16.90;99.90
14749;DHT22;7466;53.574;9.976;2023-05-15T06:52:13;17.00;99.90
14749;DHT22;7466;53.574;9.976;2023-05-15T06:54:40;17.20;99.90
14749;DHT22;7466;53.574;9.976;2023-05-15T06:57:07;17.40;99.90
14749;DHT22;7466;53.574;9.976;2023-05-15T06:59:34;17.40;99.90
14749;DHT22;7466;53.574;9.976;2023-05-15T07:02:01;17.70;99.90
14749;DHT22;7466;53.574;9.976;2023-05-15T07:04:28;18.00;99.90
14749;DHT22;7466;53.574;9.976;2023-05-15T07:06:56;18.10;99.90
14749;DHT22;7466;53.574;9.976;2023-05-15T07:09:24;18.40;99.90
14749;DHT22;7466;53.574;9.976;2023-05-15T07:11:50;18.50;99.90
14749;DHT22;7466;53.574;9.976;2023-05-15T07:14:17;18.30;99.90
14749;DHT22;7466;53.574;9.976;2023-05-15T07:16:44;18.20;99.90
14749;DHT22;7466;53.574;9.976;2023-05-15T07:19:11;18.40;99.90
14749;DHT22;7466;53.574;9.976;2023-05-15T07:21:38;18.60;99.90
14749;DHT22;7466;53.574;9.976;2023-05-15T07:24:06;18.90;99.90
14749;DHT22;7466;53.574;9.976;2023-05-15T07:26:33;19.10;99.90
14749;DHT22;7466;53.574;9.976;2023-05-15T07:29:00;18.90;99.90
14749;DHT22;7466;53.574;9.976;2023-05-15T07:31:28;18.70;99.90
14749;DHT22;7466;53.574;9.976;2023-05-15T07:33:55;19.00;99.90
14749;DHT22;7466;53.574;9.976;2023-05-15T07:36:22;19.30;99.90
14749;DHT22;7466;53.574;9.976;2023-05-15T07:38:49;19.50;99.90
14749;DHT22;7466;53.574;9.976;2023-05-15T07:41:17;19.00;99.90
14749;DHT22;7466;53.574;9.976;2023-05-15T07:43:44;19.00;99.90
14749;DHT22;7466;53.574;9.976;2023-05-15T07:46:10;19.00;99.90
14749;DHT22;7466;53.574;9.976;2023-05-15T07:48:37;19.00;99.90
14749;DHT22;7466;53.574;9.976;2023-05-15T07:51:04;19.00;99.90
14749;DHT22;7466;53.574;9.976;2023-05-15T07:53:31;19.00;99.90
14749;DHT22;7466;53.574;9.976;2023-05-15T07:55:59;19.20;99.90
14749;DHT22;7466;53.574;9.976;2023-05-15T07:58:28;19.60;99.90
14749;DHT22;7466;53.574;9.976;2023-05-15T08:00:55;20.00;99.90
14749;DHT22;7466;53.574;9.976;2023-05-15T08:03:22;19.90;99.90
14749;DHT22;7466;53.574;9.976;2023-05-15T08:05:49;20.00;99.90
14749;DHT22;7466;53.574;9.976;2023-05-15T08:08:16;20.20;99.90
14749;DHT22;7466;53.574;9.976;2023-05-15T08:10:43;20.50;99.90
14749;DHT22;7466;53.574;9.976;2023-05-15T08:13:10;20.30;99.90
14749;DHT22;7466;53.574;9.976;2023-05-15T08:15:38;20.30;99.90
14749;DHT22;7466;53.574;9.976;2023-05-15T08:18:12;20.50;99.90
14749;DHT22;7466;53.574;9.976;2023-05-15T08:20:39;20.70;99.90
14749;DHT22;7466;53.574;9.976;2023-05-15T08:23:05;20.80;98.60
14749;DHT22;7466;53.574;9.976;2023-05-15T08:25:32;20.90;98.00
14749;DHT22;7466;53.574;9.976;2023-05-15T08:28:01;20.90;96.00
14749;DHT22;7466;53.574;9.976;2023-05-15T08:30:27;21.10;95.30
14749;DHT22;7466;53.574;9.976;2023-05-15T08:32:56;21.00;93.90
14749;DHT22;7466;53.574;9.976;2023-05-15T08:35:22;21.00;94.60
14749;DHT22;7466;53.574;9.976;2023-05-15T08:37:49;20.90;94.70
14749;DHT22;7466;53.574;9.976;2023-05-15T08:40:16;20.60;94.20
14749;DHT22;7466;53.574;9.976;2023-05-15T08:42:46;20.60;94.20
14749;DHT22;7466;53.574;9.976;2023-05-15T08:45:13;20.40;97.10
14749;DHT22;7466;53.574;9.976;2023-05-15T08:47:43;20.60;97.40
14749;DHT22;7466;53.574;9.976;2023-05-15T08:50:14;20.90;97.70
14749;DHT22;7466;53.574;9.976;2023-05-15T08:52:43;20.90;94.10
14749;DHT22;7466;53.574;9.976;2023-05-15T08:55:15;21.00;91.50
14749;DHT22;7466;53.574;9.976;2023-05-15T08:57:42;21.20;87.20
14749;DHT22;7466;53.574;9.976;2023-05-15T09:00:10;21.10;86.50
14749;DHT22;7466;53.574;9.976;2023-05-15T09:02:41;20.90;86.90
14749;DHT22;7466;53.574;9.976;2023-05-15T09:05:09;21.30;87.80
14749;DHT22;7466;53.574;9.976;2023-05-15T09:07:38;21.30;83.50
14749;DHT22;7466;53.574;9.976;2023-05-15T09:10:06;21.10;86.10
14749;DHT22;7466;53.574;9.976;2023-05-15T09:12:35;21.50;85.10
14749;DHT22;7466;53.574;9.976;2023-05-15T09:15:08;21.80;82.10
14749;DHT22;7466;53.574;9.976;2023-05-15T09:17:35;22.00;77.40
14749;DHT22;7466;53.574;9.976;2023-05-15T09:20:03;22.40;79.70
14749;DHT22;7466;53.574;9.976;2023-05-15T09:22:34;22.50;77.10
14749;DHT22;7466;53.574;9.976;2023-05-15T09:25:02;22.00;78.50
14749;DHT22;7466;53.574;9.976;2023-05-15T09:27:29;22.70;79.00
14749;DHT22;7466;53.574;9.976;2023-05-15T09:30:09;22.80;78.50
14749;DHT22;7466;53.574;9.976;2023-05-15T09:32:37;23.40;76.10
14749;DHT22;7466;53.574;9.976;2023-05-15T09:35:27;23.90;74.40
14749;DHT22;7466;53.574;9.976;2023-05-15T09:37:57;24.80;71.20
14749;DHT22;7466;53.574;9.976;2023-05-15T09:40:28;24.90;66.40
14749;DHT22;7466;53.574;9.976;2023-05-15T09:42:56;24.40;69.00
14749;DHT22;7466;53.574;9.976;2023-05-15T09:45:23;24.80;69.10
14749;DHT22;7466;53.574;9.976;2023-05-15T09:47:51;25.10;67.70
14749;DHT22;7466;53.574;9.976;2023-05-15T09:50:23;24.80;67.00
14749;DHT22;7466;53.574;9.976;2023-05-15T09:52:51;24.70;64.90
14749;DHT22;7466;53.574;9.976;2023-05-15T09:55:19;23.50;62.40
14749;DHT22;7466;53.574;9.976;2023-05-15T09:58:06;23.40;65.70
14749;DHT22;7466;53.574;9.976;2023-05-15T10:00:34;23.10;66.00
14749;DHT22;7466;53.574;9.976;2023-05-15T10:03:02;22.30;65.80
14749;DHT22;7466;53.574;9.976;2023-05-15T10:05:29;22.90;67.00
14749;DHT22;7466;53.574;9.976;2023-05-15T10:07:57;23.80;65.20
14749;DHT22;7466;53.574;9.976;2023-05-15T10:10:25;23.10;63.90
14749;DHT22;7466;53.574;9.976;2023-05-15T10:12:54;23.10;64.70
14749;DHT22;7466;53.574;9.976;2023-05-15T10:15:24;23.60;64.30
14749;DHT22;7466;53.574;9.976;2023-05-15T10:17:52;24.00;62.90
14749;DHT22;7466;53.574;9.976;2023-05-15T10:20:19;24.50;61.30
14749;DHT22;7466;53.574;9.976;2023-05-15T10:22:49;24.30;60.80
14749;DHT22;7466;53.574;9.976;2023-05-15T10:25:27;24.10;60.20
14749;DHT22;7466;53.574;9.976;2023-05-15T10:27:55;24.50;60.60
14749;DHT22;7466;53.574;9.976;2023-05-15T10:30:24;24.10;60.90
14749;DHT22;7466;53.574;9.976;2023-05-15T10:32:53;24.20;60.40
14749;DHT22;7466;53.574;9.976;2023-05-15T10:35:21;24.20;58.50
14749;DHT22;7466;53.574;9.976;2023-05-15T10:37:48;24.40;57.40
14749;DHT22;7466;53.574;9.976;2023-05-15T10:40:16;24.30;56.60
14749;DHT22;7466;53.574;9.976;2023-05-15T10:42:46;24.50;57.30
14749;DHT22;7466;53.574;9.976;2023-05-15T10:45:13;23.40;57.80
14749;DHT22;7466;53.574;9.976;2023-05-15T10:47:42;23.30;60.40
14749;DHT22;7466;53.574;9.976;2023-05-15T10:50:11;23.30;60.00
14749;DHT22;7466;53.574;9.976;2023-05-15T10:52:39;24.00;60.90
14749;DHT22;7466;53.574;9.976;2023-05-15T10:55:07;24.00;59.10
14749;DHT22;7466;53.574;9.976;2023-05-15T10:57:35;23.90;58.50
14749;DHT22;7466;53.574;9.976;2023-05-15T11:00:02;24.20;59.40
14749;DHT22;7466;53.574;9.976;2023-05-15T11:02:30;23.50;60.10
14749;DHT22;7466;53.574;9.976;2023-05-15T11:05:05;23.10;62.10
14749;DHT22;7466;53.574;9.976;2023-05-15T11:07:32;22.50;62.50
14749;DHT22;7466;53.574;9.976;2023-05-15T11:09:59;22.50;63.60
14749;DHT22;7466;53.574;9.976;2023-05-15T11:12:56;22.60;62.70
14749;DHT22;7466;53.574;9.976;2023-05-15T11:15:24;23.50;60.80
14749;DHT22;7466;53.574;9.976;2023-05-15T11:18:04;23.80;59.50
14749;DHT22;7466;53.574;9.976;2023-05-15T11:20:33;23.60;61.40
14749;DHT22;7466;53.574;9.976;2023-05-15T11:23:00;23.50;60.40
14749;DHT22;7466;53.574;9.976;2023-05-15T11:25:28;23.40;59.20
14749;DHT22;7466;53.574;9.976;2023-05-15T11:27:57;23.30;57.50
14749;DHT22;7466;53.574;9.976;2023-05-15T11:30:34;23.70;59.00
14749;DHT22;7466;53.574;9.976;2023-05-15T11:33:03;24.80;59.50
14749;DHT22;7466;53.574;9.976;2023-05-15T11:35:34;25.60;57.00
14749;DHT22;7466;53.574;9.976;2023-05-15T11:38:03;26.30;54.90
14749;DHT22;7466;53.574;9.976;2023-05-15T11:40:31;26.20;53.90
14749;DHT22;7466;53.574;9.976;2023-05-15T11:43:07;26.00;54.30
14749;DHT22;7466;53.574;9.976;2023-05-15T11:45:44;25.40;54.50
14749;DHT22;7466;53.574;9.976;2023-05-15T11:48:12;25.00;52.50
14749;DHT22;7466;53.574;9.976;2023-05-15T11:50:40;24.50;53.70
14749;DHT22;7466;53.574;9.976;2023-05-15T11:53:08;23.70;53.80
14749;DHT22;7466;53.574;9.976;2023-05-15T11:55:37;23.80;52.80
14749;DHT22;7466;53.574;9.976;2023-05-15T11:58:10;24.40;53.70
14749;DHT22;7466;53.574;9.976;2023-05-15T12:00:38;25.20;54.60
14749;DHT22;7466;53.574;9.976;2023-05-15T12:03:04;24.70;54.30
14749;DHT22;7466;53.574;9.976;2023-05-15T12:05:31;24.70;54.70
14749;DHT22;7466;53.574;9.976;2023-05-15T12:07:58;24.60;54.60
14749;DHT22;7466;53.574;9.976;2023-05-15T12:10:26;24.30;56.20
14749;DHT22;7466;53.574;9.976;2023-05-15T12:12:53;24.80;56.20
14749;DHT22;7466;53.574;9.976;2023-05-15T12:15:21;25.40;55.50
14749;DHT22;7466;53.574;9.976;2023-05-15T12:17:47;25.60;55.40
14749;DHT22;7466;53.574;9.976;2023-05-15T12:20:17;25.80;55.60
14749;DHT22;7466;53.574;9.976;2023-05-15T12:22:44;25.30;55.50
14749;DHT22;7466;53.574;9.976;2023-05-15T12:25:11;25.20;54.50
14749;DHT22;7466;53.574;9.976;2023-05-15T12:27:38;25.10;55.80
14749;DHT22;7466;53.574;9.976;2023-05-15T12:30:06;24.30;60.30
14749;DHT22;7466;53.574;9.976;2023-05-15T12:32:37;23.40;65.60
14749;DHT22;7466;53.574;9.976;2023-05-15T12:35:04;23.40;69.30
14749;DHT22;7466;53.574;9.976;2023-05-15T12:37:32;23.50;72.20
14749;DHT22;7466;53.574;9.976;2023-05-15T12:40:02;23.20;71.90
14749;DHT22;7466;53.574;9.976;2023-05-15T12:42:37;23.20;70.90
14749;DHT22;7466;53.574;9.976;2023-05-15T12:45:11;23.20;73.80
14749;DHT22;7466;53.574;9.976;2023-05-15T12:47:40;22.60;82.20
14749;DHT22;7466;53.574;9.976;2023-05-15T12:50:14;22.70;87.20
14749;DHT22;7466;53.574;9.976;2023-05-15T12:52:49;22.50;90.10
14749;DHT22;7466;53.574;9.976;2023-05-15T12:55:16;22.30;90.90
14749;DHT22;7466;53.574;9.976;2023-05-15T12:57:44;22.40;91.50
14749;DHT22;7466;53.574;9.976;2023-05-15T13:00:12;22.50;91.70
14749;DHT22;7466;53.574;9.976;2023-05-15T13:02:43;22.50;92.70
14749;DHT22;7466;53.574;9.976;2023-05-15T13:05:10;22.30;94.50
14749;DHT22;7466;53.574;9.976;2023-05-15T13:07:39;22.40;95.50
14749;DHT22;7466;53.574;9.976;2023-05-15T13:10:07;22.10;99.60
14749;DHT22;7466;53.574;9.976;2023-05-15T13:12:35;22.20;99.90
14749;DHT22;7466;53.574;9.976;2023-05-15T13:15:02;22.20;99.90
14749;DHT22;7466;53.574;9.976;2023-05-15T13:17:29;22.00;99.90
14749;DHT22;7466;53.574;9.976;2023-05-15T13:19:57;21.90;99.90
14749;DHT22;7466;53.574;9.976;2023-05-15T13:22:24;22.10;99.90
14749;DHT22;7466;53.574;9.976;2023-05-15T13:24:51;22.00;99.90
14749;DHT22;7466;53.574;9.976;2023-05-15T13:27:18;22.00;99.90
14749;DHT22;7466;53.574;9.976;2023-05-15T13:29:45;22.00;99.90
14749;DHT22;7466;53.574;9.976;2023-05-15T13:32:11;22.10;99.90
14749;DHT22;7466;53.574;9.976;2023-05-15T13:34:41;21.90;99.90
14749;DHT22;7466;53.574;9.976;2023-05-15T13:37:13;21.60;99.90
14749;DHT22;7466;53.574;9.976;2023-05-15T13:39:40;21.90;99.90
14749;DHT22;7466;53.574;9.976;2023-05-15T13:42:07;22.50;99.90
14749;DHT22;7466;53.574;9.976;2023-05-15T13:44:33;23.40;99.90
14749;DHT22;7466;53.574;9.976;2023-05-15T13:47:02;23.70;99.90
14749;DHT22;7466;53.574;9.976;2023-05-15T13:49:28;24.40;99.90
14749;DHT22;7466;53.574;9.976;2023-05-15T13:51:57;25.30;99.90
14749;DHT22;7466;53.574;9.976;2023-05-15T13:54:25;25.00;99.90
14749;DHT22;7466;53.574;9.976;2023-05-15T13:56:51;25.20;99.70
14749;DHT22;7466;53.574;9.976;2023-05-15T13:59:18;26.00;97.50
14749;DHT22;7466;53.574;9.976;2023-05-15T14:01:46;27.30;92.10
14749;DHT22;7466;53.574;9.976;2023-05-15T14:04:12;27.90;88.00
14749;DHT22;7466;53.574;9.976;2023-05-15T14:06:39;28.00;85.00
14749;DHT22;7466;53.574;9.976;2023-05-15T14:09:06;28.30;87.40
14749;DHT22;7466;53.574;9.976;2023-05-15T14:11:34;29.00;79.00
14749;DHT22;7466;53.574;9.976;2023-05-15T14:14:00;29.40;76.50
14749;DHT22;7466;53.574;9.976;2023-05-15T14:16:28;30.70;71.00
14749;DHT22;7466;53.574;9.976;2023-05-15T14:18:55;29.20;72.40
14749;DHT22;7466;53.574;9.976;2023-05-15T14:21:22;30.80;68.90
14749;DHT22;7466;53.574;9.976;2023-05-15T14:23:49;31.20;66.00
14749;DHT22;7466;53.574;9.976;2023-05-15T14:26:16;32.00;62.50
14749;DHT22;7466;53.574;9.976;2023-05-15T14:28:44;30.50;63.80
14749;DHT22;7466;53.574;9.976;2023-05-15T14:31:11;31.30;63.50
14749;DHT22;7466;53.574;9.976;2023-05-15T14:33:38;31.40;62.10
14749;DHT22;7466;53.574;9.976;2023-05-15T14:36:05;31.10;62.20
14749;DHT22;7466;53.574;9.976;2023-05-15T14:38:32;29.40;67.90
14749;DHT22;7466;53.574;9.976;2023-05-15T14:40:59;30.30;64.90
14749;DHT22;7466;53.574;9.976;2023-05-15T14:43:25;28.70;71.20
14749;DHT22;7466;53.574;9.976;2023-05-15T14:45:54;29.00;70.90
14749;DHT22;7466;53.574;9.976;2023-05-15T14:48:21;28.20;74.70
14749;DHT22;7466;53.574;9.976;2023-05-15T14:50:48;29.10;73.30
14749;DHT22;7466;53.574;9.976;2023-05-15T14:53:15;27.10;74.90
14749;DHT22;7466;53.574;9.976;2023-05-15T14:55:42;26.60;79.50
14749;DHT22;7466;53.574;9.976;2023-05-15T14:58:09;26.80;81.50
14749;DHT22;7466;53.574;9.976;2023-05-15T15:00:36;26.80;84.80
14749;DHT22;7466;53.574;9.976;2023-05-15T15:03:04;28.50;80.00
14749;DHT22;7466;53.574;9.976;2023-05-15T15:05:31;28.00;79.20
14749;DHT22;7466;53.574;9.976;2023-05-15T15:08:00;27.60;77.10
14749;DHT22;7466;53.574;9.976;2023-05-15T15:10:27;26.50;84.90
14749;DHT22;7466;53.574;9.976;2023-05-15T15:12:53;26.20;89.20
14749;DHT22;7466;53.574;9.976;2023-05-15T15:15:21;26.50;91.30
14749;DHT22;7466;53.574;9.976;2023-05-15T15:17:48;26.30;91.70
14749;DHT22;7466;53.574;9.976;2023-05-15T15:20:17;25.70;94.50
14749;DHT22;7466;53.574;9.976;2023-05-15T15:22:44;24.20;99.90
14749;DHT22;7466;53.574;9.976;2023-05-15T15:25:11;23.50;99.90
14749;DHT22;7466;53.574;9.976;2023-05-15T15:27:38;22.70;99.90
14749;DHT22;7466;53.574;9.976;2023-05-15T15:30:07;22.40;99.90
14749;DHT22;7466;53.574;9.976;2023-05-15T15:32:34;22.30;99.90
14749;DHT22;7466;53.574;9.976;2023-05-15T15:35:02;22.30;99.90
14749;DHT22;7466;53.574;9.976;2023-05-15T15:37:30;21.90;99.90
14749;DHT22;7466;53.574;9.976;2023-05-15T15:39:58;21.50;99.90
14749;DHT22;7466;53.574;9.976;2023-05-15T15:42:25;21.30;99.90
14749;DHT22;7466;53.574;9.976;2023-05-15T15:44:52;21.00;99.90
14749;DHT22;7466;53.574;9.976;2023-05-15T15:47:18;20.80;99.90
14749;DHT22;7466;53.574;9.976;2023-05-15T15:49:45;20.60;99.90
14749;DHT22;7466;53.574;9.976;2023-05-15T15:52:12;20.60;99.90